sensor_id;sensor_type;location;lat;lon;timestamp;noise_LAeq;noise_LA_min;noise_LA_max;noise_LA01;noise_LA95
81666;Laerm;71083;51.796;10.952;2024-01-30T00:02:10;31.49;29.42;47.75;;
81666;Laerm;71083;51.796;10.952;2024-01-30T00:04:36;46.29;29.16;61.26;;
81666;Laerm;71083;51.796;10.952;2024-01-30T00:07:01;44.28;29.15;61.43;;
81666;Laerm;71083;51.796;10.952;2024-01-30T00:09:26;41.93;29.42;60.37;;
81666;Laerm;71083;51.796;10.952;2024-01-30T00:11:51;57.28;29.25;71.55;;
81666;Laerm;71083;51.796;10.952;2024-01-30T00:14:17;55.07;29.01;71.41;;
81666;Laerm;71083;51.796;10.952;2024-01-30T00:16:42;55.50;29.29;72.83;;
81666;Laerm;71083;51.796;10.952;2024-01-30T00:19:07;52.90;28.97;67.71;;
81666;Laerm;71083;51.796;10.952;2024-01-30T00:21:33;39.47;28.75;59.52;;
81666;Laerm;71083;51.796;10.952;2024-01-30T00:23:58;30.78;28.57;43.43;;
81666;Laerm;71083;51.796;10.952;2024-01-30T00:26:24;30.25;28.47;41.87;;
81666;Laerm;71083;51.796;10.952;2024-01-30T00:28:49;38.18;29.29;49.30;;
81666;Laerm;71083;51.796;10.952;2024-01-30T00:31:15;51.83;29.22;67.53;;
81666;Laerm;71083;51.796;10.952;2024-01-30T00:33:40;51.46;29.01;67.80;;
81666;Laerm;71083;51.796;10.952;2024-01-30T00:36:06;56.97;29.26;74.95;;
81666;Laerm;71083;51.796;10.952;2024-01-30T00:38:34;56.53;28.76;74.47;;
81666;Laerm;71083;51.796;10.952;2024-01-30T00:40:59;44.41;29.60;63.77;;
81666;Laerm;71083;51.796;10.952;2024-01-30T00:43:25;32.28;29.70;38.41;;
81666;Laerm;71083;51.796;10.952;2024-01-30T00:45:50;31.08;28.75;42.86;;
81666;Laerm;71083;51.796;10.952;2024-01-30T00:48:17;58.44;28.66;77.60;;
81666;Laerm;71083;51.796;10.952;2024-01-30T00:50:43;33.20;29.20;49.05;;
81666;Laerm;71083;51.796;10.952;2024-01-30T00:53:08;31.02;29.59;34.60;;
81666;Laerm;71083;51.796;10.952;2024-01-30T00:55:33;40.27;30.07;49.16;;
81666;Laerm;71083;51.796;10.952;2024-01-30T00:57:59;33.23;29.19;51.37;;
81666;Laerm;71083;51.796;10.952;2024-01-30T01:00:24;53.78;29.15;70.38;;
81666;Laerm;71083;51.796;10.952;2024-01-30T01:02:54;31.35;29.29;38.41;;
81666;Laerm;71083;51.796;10.952;2024-01-30T01:05:19;33.23;29.24;50.38;;
81666;Laerm;71083;51.796;10.952;2024-01-30T01:07:44;34.92;29.79;46.49;;
81666;Laerm;71083;51.796;10.952;2024-01-30T01:10:12;34.75;29.61;52.55;;
81666;Laerm;71083;51.796;10.952;2024-01-30T01:12:38;59.82;29.23;74.40;;
81666;Laerm;71083;51.796;10.952;2024-01-30T01:15:04;31.01;28.89;36.63;;
81666;Laerm;71083;51.796;10.952;2024-01-30T01:17:30;30.20;28.75;39.35;;
81666;Laerm;71083;51.796;10.952;2024-01-30T01:19:55;57.93;28.58;74.58;;
81666;Laerm;71083;51.796;10.952;2024-01-30T01:22:20;31.78;28.90;46.05;;
81666;Laerm;71083;51.796;10.952;2024-01-30T01:24:46;37.34;28.91;50.81;;
81666;Laerm;71083;51.796;10.952;2024-01-30T01:27:11;30.05;28.75;35.68;;
81666;Laerm;71083;51.796;10.952;2024-01-30T01:29:36;57.78;29.16;72.50;;
81666;Laerm;71083;51.796;10.952;2024-01-30T01:32:01;34.66;28.76;49.28;;
81666;Laerm;71083;51.796;10.952;2024-01-30T01:34:27;55.19;29.18;68.34;;
81666;Laerm;71083;51.796;10.952;2024-01-30T01:36:52;58.15;29.09;74.75;;
81666;Laerm;71083;51.796;10.952;2024-01-30T01:39:20;35.45;28.85;47.78;;
81666;Laerm;71083;51.796;10.952;2024-01-30T01:41:45;29.67;28.46;32.87;;
81666;Laerm;71083;51.796;10.952;2024-01-30T01:44:11;55.24;28.47;73.19;;
81666;Laerm;71083;51.796;10.952;2024-01-30T01:46:36;30.88;28.29;42.38;;
81666;Laerm;71083;51.796;10.952;2024-01-30T01:49:02;56.09;28.81;70.05;;
81666;Laerm;71083;51.796;10.952;2024-01-30T01:51:29;45.55;29.34;62.45;;
81666;Laerm;71083;51.796;10.952;2024-01-30T01:53:56;60.02;28.67;77.42;;
81666;Laerm;71083;51.796;10.952;2024-01-30T01:56:22;31.23;28.89;37.65;;
81666;Laerm;71083;51.796;10.952;2024-01-30T01:58:48;53.40;30.18;69.84;;
81666;Laerm;71083;51.796;10.952;2024-01-30T02:01:14;49.29;29.06;66.85;;
81666;Laerm;71083;51.796;10.952;2024-01-30T02:03:41;31.82;29.10;41.31;;
81666;Laerm;71083;51.796;10.952;2024-01-30T02:06:07;58.89;30.70;74.46;;
81666;Laerm;71083;51.796;10.952;2024-01-30T02:08:32;37.20;30.44;48.18;;
81666;Laerm;71083;51.796;10.952;2024-01-30T02:10:58;51.32;30.07;68.21;;
81666;Laerm;71083;51.796;10.952;2024-01-30T02:13:23;60.04;29.04;75.87;;
81666;Laerm;71083;51.796;10.952;2024-01-30T02:15:49;53.43;28.80;71.21;;
81666;Laerm;71083;51.796;10.952;2024-01-30T02:18:15;62.62;29.26;81.33;;
81666;Laerm;71083;51.796;10.952;2024-01-30T02:20:40;36.75;30.88;48.75;;
81666;Laerm;71083;51.796;10.952;2024-01-30T02:23:06;51.33;31.30;67.80;;
81666;Laerm;71083;51.796;10.952;2024-01-30T02:25:35;56.94;29.57;73.04;;
81666;Laerm;71083;51.796;10.952;2024-01-30T02:28:01;31.97;28.60;44.99;;
81666;Laerm;71083;51.796;10.952;2024-01-30T02:30:26;57.96;28.78;71.65;;
81666;Laerm;71083;51.796;10.952;2024-01-30T02:32:51;30.20;28.73;37.29;;
81666;Laerm;71083;51.796;10.952;2024-01-30T02:35:17;60.98;28.98;79.68;;
81666;Laerm;71083;51.796;10.952;2024-01-30T02:37:42;56.94;29.09;76.05;;
81666;Laerm;71083;51.796;10.952;2024-01-30T02:40:07;29.48;28.39;32.70;;
81666;Laerm;71083;51.796;10.952;2024-01-30T02:42:32;55.08;28.61;69.73;;
81666;Laerm;71083;51.796;10.952;2024-01-30T02:44:58;37.21;29.84;51.21;;
81666;Laerm;71083;51.796;10.952;2024-01-30T02:47:23;37.26;29.06;49.77;;
81666;Laerm;71083;51.796;10.952;2024-01-30T02:49:48;48.71;29.42;66.50;;
81666;Laerm;71083;51.796;10.952;2024-01-30T02:52:13;61.39;30.75;78.30;;
81666;Laerm;71083;51.796;10.952;2024-01-30T02:54:39;56.59;30.51;71.40;;
81666;Laerm;71083;51.796;10.952;2024-01-30T02:57:04;31.51;28.95;37.94;;
81666;Laerm;71083;51.796;10.952;2024-01-30T02:59:29;55.82;29.21;71.82;;
81666;Laerm;71083;51.796;10.952;2024-01-30T03:01:55;46.75;29.28;65.66;;
81666;Laerm;71083;51.796;10.952;2024-01-30T03:04:20;63.33;33.59;77.37;;
81666;Laerm;71083;51.796;10.952;2024-01-30T03:06:45;61.85;30.53;78.50;;
81666;Laerm;71083;51.796;10.952;2024-01-30T03:09:12;59.99;31.38;75.09;;
81666;Laerm;71083;51.796;10.952;2024-01-30T03:11:37;52.67;29.91;69.52;;
81666;Laerm;71083;51.796;10.952;2024-01-30T03:14:02;52.80;30.07;67.60;;
81666;Laerm;71083;51.796;10.952;2024-01-30T03:16:29;67.32;31.76;86.60;;
81666;Laerm;71083;51.796;10.952;2024-01-30T03:18:54;62.36;34.13;78.99;;
81666;Laerm;71083;51.796;10.952;2024-01-30T03:21:19;66.80;30.93;84.36;;
81666;Laerm;71083;51.796;10.952;2024-01-30T03:23:45;61.81;30.73;80.22;;
81666;Laerm;71083;51.796;10.952;2024-01-30T03:26:10;61.48;30.43;73.61;;
81666;Laerm;71083;51.796;10.952;2024-01-30T03:28:37;56.02;30.05;69.89;;
81666;Laerm;71083;51.796;10.952;2024-01-30T03:31:02;59.68;29.80;73.03;;
81666;Laerm;71083;51.796;10.952;2024-01-30T03:33:28;65.44;34.69;79.71;;
81666;Laerm;71083;51.796;10.952;2024-01-30T03:35:53;64.07;38.51;78.60;;
81666;Laerm;71083;51.796;10.952;2024-01-30T03:38:18;61.55;31.26;75.21;;
81666;Laerm;71083;51.796;10.952;2024-01-30T03:40:44;60.84;31.77;71.40;;
81666;Laerm;71083;51.796;10.952;2024-01-30T03:43:09;59.12;32.35;71.91;;
81666;Laerm;71083;51.796;10.952;2024-01-30T03:45:34;60.73;32.10;72.17;;
81666;Laerm;71083;51.796;10.952;2024-01-30T03:47:59;59.47;29.98;76.01;;
81666;Laerm;71083;51.796;10.952;2024-01-30T03:50:25;58.39;31.88;70.99;;
81666;Laerm;71083;51.796;10.952;2024-01-30T03:52:50;58.46;34.72;73.15;;
81666;Laerm;71083;51.796;10.952;2024-01-30T03:55:15;61.98;32.55;77.11;;
81666;Laerm;71083;51.796;10.952;2024-01-30T03:57:40;63.32;32.20;77.43;;
81666;Laerm;71083;51.796;10.952;2024-01-30T04:00:06;59.59;31.41;73.33;;
81666;Laerm;71083;51.796;10.952;2024-01-30T04:02:33;57.82;31.45;73.17;;
81666;Laerm;71083;51.796;10.952;2024-01-30T04:04:58;57.65;32.32;69.04;;
81666;Laerm;71083;51.796;10.952;2024-01-30T04:07:24;63.65;36.02;78.77;;
81666;Laerm;71083;51.796;10.952;2024-01-30T04:09:49;59.34;34.64;70.63;;
81666;Laerm;71083;51.796;10.952;2024-01-30T04:12:14;62.61;38.78;74.71;;
81666;Laerm;71083;51.796;10.952;2024-01-30T04:14:39;64.22;37.92;75.38;;
81666;Laerm;71083;51.796;10.952;2024-01-30T04:17:05;63.22;41.32;74.55;;
81666;Laerm;71083;51.796;10.952;2024-01-30T04:19:30;64.45;35.46;79.77;;
81666;Laerm;71083;51.796;10.952;2024-01-30T04:21:55;66.33;33.25;79.14;;
81666;Laerm;71083;51.796;10.952;2024-01-30T04:24:21;61.71;34.13;74.77;;
81666;Laerm;71083;51.796;10.952;2024-01-30T04:26:46;63.52;39.00;76.11;;
81666;Laerm;71083;51.796;10.952;2024-01-30T04:29:11;64.99;38.00;81.46;;
81666;Laerm;71083;51.796;10.952;2024-01-30T04:31:36;63.52;40.59;71.96;;
81666;Laerm;71083;51.796;10.952;2024-01-30T04:34:02;64.14;43.49;73.88;;
81666;Laerm;71083;51.796;10.952;2024-01-30T04:36:27;62.70;38.42;73.65;;
81666;Laerm;71083;51.796;10.952;2024-01-30T04:38:52;66.70;49.00;78.00;;
81666;Laerm;71083;51.796;10.952;2024-01-30T04:41:17;65.68;41.37;77.45;;
81666;Laerm;71083;51.796;10.952;2024-01-30T04:43:43;61.73;34.63;72.63;;
81666;Laerm;71083;51.796;10.952;2024-01-30T04:46:08;65.98;39.27;80.60;;
81666;Laerm;71083;51.796;10.952;2024-01-30T04:48:33;64.51;40.79;76.45;;
81666;Laerm;71083;51.796;10.952;2024-01-30T04:50:59;65.39;39.04;74.23;;
81666;Laerm;71083;51.796;10.952;2024-01-30T04:53:26;62.90;38.53;74.28;;
81666;Laerm;71083;51.796;10.952;2024-01-30T04:55:51;61.76;39.08;72.31;;
81666;Laerm;71083;51.796;10.952;2024-01-30T04:58:17;64.83;39.54;78.28;;
81666;Laerm;71083;51.796;10.952;2024-01-30T05:00:42;65.43;46.73;74.45;;
81666;Laerm;71083;51.796;10.952;2024-01-30T05:03:07;67.06;39.41;77.72;;
81666;Laerm;71083;51.796;10.952;2024-01-30T05:05:33;67.81;51.90;78.69;;
81666;Laerm;71083;51.796;10.952;2024-01-30T05:07:58;66.67;38.56;80.22;;
81666;Laerm;71083;51.796;10.952;2024-01-30T05:10:23;63.79;39.41;74.84;;
81666;Laerm;71083;51.796;10.952;2024-01-30T05:12:48;64.32;40.66;73.58;;
81666;Laerm;71083;51.796;10.952;2024-01-30T05:15:14;65.09;46.22;76.39;;
81666;Laerm;71083;51.796;10.952;2024-01-30T05:17:39;65.59;48.32;77.13;;
81666;Laerm;71083;51.796;10.952;2024-01-30T05:20:05;66.20;46.01;74.85;;
81666;Laerm;71083;51.796;10.952;2024-01-30T05:22:30;66.55;52.20;75.81;;
81666;Laerm;71083;51.796;10.952;2024-01-30T05:24:55;65.08;43.37;77.70;;
81666;Laerm;71083;51.796;10.952;2024-01-30T05:27:21;66.22;44.28;76.50;;
81666;Laerm;71083;51.796;10.952;2024-01-30T05:29:46;65.93;48.21;74.92;;
81666;Laerm;71083;51.796;10.952;2024-01-30T05:32:11;65.85;40.87;77.53;;
81666;Laerm;71083;51.796;10.952;2024-01-30T05:34:37;66.75;48.58;79.85;;
81666;Laerm;71083;51.796;10.952;2024-01-30T05:37:02;65.65;44.86;76.55;;
81666;Laerm;71083;51.796;10.952;2024-01-30T05:39:27;67.17;44.84;75.07;;
81666;Laerm;71083;51.796;10.952;2024-01-30T05:41:53;66.22;46.18;78.18;;
81666;Laerm;71083;51.796;10.952;2024-01-30T05:44:18;66.66;49.35;73.64;;
81666;Laerm;71083;51.796;10.952;2024-01-30T05:46:43;64.91;46.67;76.55;;
81666;Laerm;71083;51.796;10.952;2024-01-30T05:49:08;67.40;44.19;75.42;;
81666;Laerm;71083;51.796;10.952;2024-01-30T05:51:34;65.14;49.52;74.46;;
81666;Laerm;71083;51.796;10.952;2024-01-30T05:53:59;66.94;51.65;73.84;;
81666;Laerm;71083;51.796;10.952;2024-01-30T05:56:24;67.58;48.48;81.06;;
81666;Laerm;71083;51.796;10.952;2024-01-30T05:58:50;68.07;46.31;79.55;;
81666;Laerm;71083;51.796;10.952;2024-01-30T06:01:16;64.28;48.22;74.19;;
81666;Laerm;71083;51.796;10.952;2024-01-30T06:03:41;66.04;45.71;74.07;;
81666;Laerm;71083;51.796;10.952;2024-01-30T06:06:08;67.73;47.27;76.85;;
81666;Laerm;71083;51.796;10.952;2024-01-30T06:08:33;66.95;55.38;77.14;;
81666;Laerm;71083;51.796;10.952;2024-01-30T06:10:59;66.61;48.61;76.38;;
81666;Laerm;71083;51.796;10.952;2024-01-30T06:13:24;65.00;49.50;73.32;;
81666;Laerm;71083;51.796;10.952;2024-01-30T06:15:49;67.87;49.54;81.54;;
81666;Laerm;71083;51.796;10.952;2024-01-30T06:18:15;67.81;46.62;81.87;;
81666;Laerm;71083;51.796;10.952;2024-01-30T06:20:40;67.61;43.84;76.20;;
81666;Laerm;71083;51.796;10.952;2024-01-30T06:23:05;66.96;48.63;77.39;;
81666;Laerm;71083;51.796;10.952;2024-01-30T06:25:31;67.61;48.37;76.20;;
81666;Laerm;71083;51.796;10.952;2024-01-30T06:27:56;64.31;40.95;72.76;;
81666;Laerm;71083;51.796;10.952;2024-01-30T06:30:22;68.23;42.93;78.33;;
81666;Laerm;71083;51.796;10.952;2024-01-30T06:32:47;67.09;53.10;75.14;;
81666;Laerm;71083;51.796;10.952;2024-01-30T06:35:12;68.37;54.98;80.88;;
81666;Laerm;71083;51.796;10.952;2024-01-30T06:37:38;67.15;48.73;73.38;;
81666;Laerm;71083;51.796;10.952;2024-01-30T06:40:03;67.24;48.01;76.61;;
81666;Laerm;71083;51.796;10.952;2024-01-30T06:42:30;66.93;51.02;76.08;;
81666;Laerm;71083;51.796;10.952;2024-01-30T06:44:55;67.44;47.06;76.93;;
81666;Laerm;71083;51.796;10.952;2024-01-30T06:47:21;67.94;48.10;78.62;;
81666;Laerm;71083;51.796;10.952;2024-01-30T06:49:46;67.39;49.77;76.25;;
81666;Laerm;71083;51.796;10.952;2024-01-30T06:52:11;65.73;45.00;74.44;;
81666;Laerm;71083;51.796;10.952;2024-01-30T06:54:36;67.49;42.63;78.57;;
81666;Laerm;71083;51.796;10.952;2024-01-30T06:57:02;67.60;45.95;75.99;;
81666;Laerm;71083;51.796;10.952;2024-01-30T06:59:27;68.90;46.51;80.78;;
81666;Laerm;71083;51.796;10.952;2024-01-30T07:01:52;68.01;46.62;79.83;;
81666;Laerm;71083;51.796;10.952;2024-01-30T07:04:18;65.07;44.53;73.52;;
81666;Laerm;71083;51.796;10.952;2024-01-30T07:06:43;67.11;45.23;75.72;;
81666;Laerm;71083;51.796;10.952;2024-01-30T07:09:09;67.21;53.38;84.48;;
81666;Laerm;71083;51.796;10.952;2024-01-30T07:11:34;66.52;48.38;77.70;;
81666;Laerm;71083;51.796;10.952;2024-01-30T07:13:59;65.45;49.81;73.42;;
81666;Laerm;71083;51.796;10.952;2024-01-30T07:16:24;66.60;43.24;80.04;;
81666;Laerm;71083;51.796;10.952;2024-01-30T07:18:50;65.61;44.62;72.81;;
81666;Laerm;71083;51.796;10.952;2024-01-30T07:21:15;65.36;44.27;78.84;;
81666;Laerm;71083;51.796;10.952;2024-01-30T07:23:40;67.71;44.42;79.80;;
81666;Laerm;71083;51.796;10.952;2024-01-30T07:26:07;67.01;49.51;76.33;;
81666;Laerm;71083;51.796;10.952;2024-01-30T07:28:32;67.76;44.45;81.27;;
81666;Laerm;71083;51.796;10.952;2024-01-30T07:30:58;65.73;50.04;73.84;;
81666;Laerm;71083;51.796;10.952;2024-01-30T07:33:23;65.93;51.59;75.32;;
81666;Laerm;71083;51.796;10.952;2024-01-30T07:35:48;66.43;53.84;73.81;;
81666;Laerm;71083;51.796;10.952;2024-01-30T07:38:14;66.06;42.61;74.18;;
81666;Laerm;71083;51.796;10.952;2024-01-30T07:40:39;69.36;47.84;83.01;;
81666;Laerm;71083;51.796;10.952;2024-01-30T07:43:04;67.51;49.31;83.65;;
81666;Laerm;71083;51.796;10.952;2024-01-30T07:45:30;68.09;48.92;80.16;;
81666;Laerm;71083;51.796;10.952;2024-01-30T07:47:58;65.25;45.23;75.09;;
81666;Laerm;71083;51.796;10.952;2024-01-30T07:50:24;65.90;46.27;76.09;;
81666;Laerm;71083;51.796;10.952;2024-01-30T07:52:49;67.24;49.76;80.03;;
81666;Laerm;71083;51.796;10.952;2024-01-30T07:55:19;66.00;48.48;75.39;;
81666;Laerm;71083;51.796;10.952;2024-01-30T07:57:45;67.13;48.34;76.58;;
81666;Laerm;71083;51.796;10.952;2024-01-30T08:00:11;66.75;46.52;77.29;;
81666;Laerm;71083;51.796;10.952;2024-01-30T08:02:36;67.95;47.29;80.75;;
81666;Laerm;71083;51.796;10.952;2024-01-30T08:05:02;71.58;52.22;85.27;;
81666;Laerm;71083;51.796;10.952;2024-01-30T08:07:27;67.92;47.08;79.23;;
81666;Laerm;71083;51.796;10.952;2024-01-30T08:09:54;66.29;46.72;73.76;;
81666;Laerm;71083;51.796;10.952;2024-01-30T08:12:20;66.95;45.97;75.67;;
81666;Laerm;71083;51.796;10.952;2024-01-30T08:14:45;65.06;48.39;74.37;;
81666;Laerm;71083;51.796;10.952;2024-01-30T08:17:10;67.13;44.60;75.65;;
81666;Laerm;71083;51.796;10.952;2024-01-30T08:19:35;66.03;45.15;76.27;;
81666;Laerm;71083;51.796;10.952;2024-01-30T08:22:01;66.95;51.38;76.27;;
81666;Laerm;71083;51.796;10.952;2024-01-30T08:24:26;67.54;49.63;76.24;;
81666;Laerm;71083;51.796;10.952;2024-01-30T08:26:51;65.13;43.50;73.55;;
81666;Laerm;71083;51.796;10.952;2024-01-30T08:29:16;76.95;54.41;97.03;;
81666;Laerm;71083;51.796;10.952;2024-01-30T08:31:42;65.50;51.98;76.82;;
81666;Laerm;71083;51.796;10.952;2024-01-30T08:34:07;66.97;48.24;80.61;;
81666;Laerm;71083;51.796;10.952;2024-01-30T08:36:32;67.97;46.20;76.71;;
81666;Laerm;71083;51.796;10.952;2024-01-30T08:38:58;68.38;50.27;80.63;;
81666;Laerm;71083;51.796;10.952;2024-01-30T08:41:23;68.37;49.10;78.00;;
81666;Laerm;71083;51.796;10.952;2024-01-30T08:43:48;66.64;46.34;74.63;;
81666;Laerm;71083;51.796;10.952;2024-01-30T08:46:17;65.44;48.76;72.96;;
81666;Laerm;71083;51.796;10.952;2024-01-30T08:48:42;67.35;47.33;75.62;;
81666;Laerm;71083;51.796;10.952;2024-01-30T08:51:07;66.52;48.48;75.35;;
81666;Laerm;71083;51.796;10.952;2024-01-30T08:53:33;69.34;55.40;76.77;;
81666;Laerm;71083;51.796;10.952;2024-01-30T08:55:59;68.24;55.81;75.88;;
81666;Laerm;71083;51.796;10.952;2024-01-30T08:58:24;67.31;49.11;77.50;;
81666;Laerm;71083;51.796;10.952;2024-01-30T09:00:49;68.29;50.01;78.12;;
81666;Laerm;71083;51.796;10.952;2024-01-30T09:03:16;68.22;46.81;77.22;;
81666;Laerm;71083;51.796;10.952;2024-01-30T09:05:42;65.18;46.11;74.90;;
81666;Laerm;71083;51.796;10.952;2024-01-30T09:08:07;68.31;50.33;79.24;;
81666;Laerm;71083;51.796;10.952;2024-01-30T09:10:32;67.18;47.26;76.13;;
81666;Laerm;71083;51.796;10.952;2024-01-30T09:12:57;68.55;46.01;79.28;;
81666;Laerm;71083;51.796;10.952;2024-01-30T09:15:23;67.73;49.72;77.74;;
81666;Laerm;71083;51.796;10.952;2024-01-30T09:17:48;64.65;42.74;75.14;;
81666;Laerm;71083;51.796;10.952;2024-01-30T09:20:13;67.44;43.98;75.90;;
81666;Laerm;71083;51.796;10.952;2024-01-30T09:22:38;66.56;47.15;79.34;;
81666;Laerm;71083;51.796;10.952;2024-01-30T09:25:04;67.50;52.03;75.90;;
81666;Laerm;71083;51.796;10.952;2024-01-30T09:27:29;67.97;51.80;79.16;;
81666;Laerm;71083;51.796;10.952;2024-01-30T09:29:54;66.49;48.75;75.74;;
81666;Laerm;71083;51.796;10.952;2024-01-30T09:32:20;66.30;46.66;74.87;;
81666;Laerm;71083;51.796;10.952;2024-01-30T09:34:45;67.90;54.36;77.30;;
81666;Laerm;71083;51.796;10.952;2024-01-30T09:37:10;66.03;46.41;74.30;;
81666;Laerm;71083;51.796;10.952;2024-01-30T09:39:36;67.51;52.98;75.78;;
81666;Laerm;71083;51.796;10.952;2024-01-30T09:44:45;67.64;46.23;77.89;;
81666;Laerm;71083;51.796;10.952;2024-01-30T09:47:12;67.84;51.88;80.18;;
81666;Laerm;71083;51.796;10.952;2024-01-30T09:49:37;68.18;48.43;77.88;;
81666;Laerm;71083;51.796;10.952;2024-01-30T09:52:03;68.29;52.09;76.39;;
81666;Laerm;71083;51.796;10.952;2024-01-30T09:54:30;66.03;50.08;73.33;;
81666;Laerm;71083;51.796;10.952;2024-01-30T09:56:56;68.19;51.60;79.41;;
81666;Laerm;71083;51.796;10.952;2024-01-30T09:59:21;67.79;46.30;77.32;;
81666;Laerm;71083;51.796;10.952;2024-01-30T10:01:47;66.31;49.28;74.27;;
81666;Laerm;71083;51.796;10.952;2024-01-30T10:04:12;67.46;53.37;76.15;;
81666;Laerm;71083;51.796;10.952;2024-01-30T10:06:38;67.53;50.88;78.33;;
81666;Laerm;71083;51.796;10.952;2024-01-30T10:09:03;68.80;52.93;80.88;;
81666;Laerm;71083;51.796;10.952;2024-01-30T10:11:29;66.52;44.99;77.41;;
81666;Laerm;71083;51.796;10.952;2024-01-30T10:13:54;67.75;47.02;79.29;;
81666;Laerm;71083;51.796;10.952;2024-01-30T10:16:19;67.07;44.58;76.89;;
81666;Laerm;71083;51.796;10.952;2024-01-30T10:18:45;68.86;53.38;77.47;;
81666;Laerm;71083;51.796;10.952;2024-01-30T10:21:10;67.76;45.96;79.01;;
81666;Laerm;71083;51.796;10.952;2024-01-30T10:23:35;66.05;49.52;76.88;;
81666;Laerm;71083;51.796;10.952;2024-01-30T10:26:02;68.21;48.63;78.20;;
81666;Laerm;71083;51.796;10.952;2024-01-30T10:28:28;68.26;50.81;79.51;;
81666;Laerm;71083;51.796;10.952;2024-01-30T10:30:58;67.08;42.88;74.87;;
81666;Laerm;71083;51.796;10.952;2024-01-30T10:33:28;68.08;54.29;75.63;;
81666;Laerm;71083;51.796;10.952;2024-01-30T10:36:00;67.24;48.72;76.02;;
81666;Laerm;71083;51.796;10.952;2024-01-30T10:38:26;67.70;50.88;77.21;;
81666;Laerm;71083;51.796;10.952;2024-01-30T10:40:53;67.45;48.62;75.41;;
81666;Laerm;71083;51.796;10.952;2024-01-30T10:43:21;67.43;48.70;75.90;;
81666;Laerm;71083;51.796;10.952;2024-01-30T10:45:47;67.12;49.12;74.14;;
81666;Laerm;71083;51.796;10.952;2024-01-30T10:48:14;70.08;55.65;84.90;;
81666;Laerm;71083;51.796;10.952;2024-01-30T10:50:41;66.53;49.66;76.57;;
81666;Laerm;71083;51.796;10.952;2024-01-30T10:53:07;68.43;57.29;79.01;;
81666;Laerm;71083;51.796;10.952;2024-01-30T10:55:34;66.32;52.78;75.71;;
81666;Laerm;71083;51.796;10.952;2024-01-30T10:57:59;67.70;47.85;79.65;;
81666;Laerm;71083;51.796;10.952;2024-01-30T11:00:25;68.35;53.50;80.23;;
81666;Laerm;71083;51.796;10.952;2024-01-30T11:02:51;66.90;45.29;75.17;;
81666;Laerm;71083;51.796;10.952;2024-01-30T11:05:23;67.88;47.52;77.10;;
81666;Laerm;71083;51.796;10.952;2024-01-30T11:07:49;69.15;55.13;80.29;;
81666;Laerm;71083;51.796;10.952;2024-01-30T11:10:14;65.55;46.99;74.24;;
81666;Laerm;71083;51.796;10.952;2024-01-30T11:12:40;68.60;53.33;78.24;;
81666;Laerm;71083;51.796;10.952;2024-01-30T11:20:14;68.37;51.06;76.93;;
81666;Laerm;71083;51.796;10.952;2024-01-30T11:22:40;67.05;50.26;75.63;;
81666;Laerm;71083;51.796;10.952;2024-01-30T11:25:06;65.39;49.06;73.06;;
81666;Laerm;71083;51.796;10.952;2024-01-30T11:27:32;68.31;52.32;80.06;;
81666;Laerm;71083;51.796;10.952;2024-01-30T11:30:01;68.00;49.63;78.57;;
81666;Laerm;71083;51.796;10.952;2024-01-30T11:32:26;67.68;48.06;78.61;;
81666;Laerm;71083;51.796;10.952;2024-01-30T11:34:52;66.69;56.45;77.16;;
81666;Laerm;71083;51.796;10.952;2024-01-30T11:37:17;66.05;49.94;72.85;;
81666;Laerm;71083;51.796;10.952;2024-01-30T11:39:46;68.41;49.83;76.99;;
81666;Laerm;71083;51.796;10.952;2024-01-30T11:42:11;68.69;52.49;78.46;;
81666;Laerm;71083;51.796;10.952;2024-01-30T11:44:37;66.46;50.70;74.34;;
81666;Laerm;71083;51.796;10.952;2024-01-30T11:47:03;67.08;50.54;74.15;;
81666;Laerm;71083;51.796;10.952;2024-01-30T11:49:28;65.25;48.85;72.85;;
81666;Laerm;71083;51.796;10.952;2024-01-30T11:51:54;67.78;50.72;77.43;;
81666;Laerm;71083;51.796;10.952;2024-01-30T11:54:19;67.25;52.00;74.80;;
81666;Laerm;71083;51.796;10.952;2024-01-30T11:56:45;66.59;46.63;74.21;;
81666;Laerm;71083;51.796;10.952;2024-01-30T11:59:10;69.04;53.27;76.54;;
81666;Laerm;71083;51.796;10.952;2024-01-30T12:01:36;67.77;47.19;75.32;;
81666;Laerm;71083;51.796;10.952;2024-01-30T12:04:01;67.43;49.40;77.49;;
81666;Laerm;71083;51.796;10.952;2024-01-30T12:06:28;67.61;52.46;77.92;;
81666;Laerm;71083;51.796;10.952;2024-01-30T12:09:00;68.94;53.06;80.20;;
81666;Laerm;71083;51.796;10.952;2024-01-30T12:11:25;66.84;50.38;74.70;;
81666;Laerm;71083;51.796;10.952;2024-01-30T12:13:51;67.94;51.37;74.97;;
81666;Laerm;71083;51.796;10.952;2024-01-30T12:16:16;64.56;48.90;73.85;;
81666;Laerm;71083;51.796;10.952;2024-01-30T12:18:42;67.03;44.95;74.74;;
81666;Laerm;71083;51.796;10.952;2024-01-30T12:21:07;67.91;56.25;77.04;;
81666;Laerm;71083;51.796;10.952;2024-01-30T12:23:34;65.72;47.57;73.79;;
81666;Laerm;71083;51.796;10.952;2024-01-30T12:26:00;67.56;50.35;78.52;;
81666;Laerm;71083;51.796;10.952;2024-01-30T12:28:25;67.50;50.59;78.41;;
81666;Laerm;71083;51.796;10.952;2024-01-30T12:30:54;67.06;48.11;74.32;;
81666;Laerm;71083;51.796;10.952;2024-01-30T12:33:19;67.59;47.91;77.41;;
81666;Laerm;71083;51.796;10.952;2024-01-30T12:35:46;63.77;45.22;72.83;;
81666;Laerm;71083;51.796;10.952;2024-01-30T12:38:11;66.71;47.79;72.90;;
81666;Laerm;71083;51.796;10.952;2024-01-30T12:40:37;65.89;46.35;73.65;;
81666;Laerm;71083;51.796;10.952;2024-01-30T12:43:02;66.62;50.56;73.92;;
81666;Laerm;71083;51.796;10.952;2024-01-30T12:45:28;68.16;47.43;77.99;;
81666;Laerm;71083;51.796;10.952;2024-01-30T12:47:53;67.86;46.63;83.37;;
81666;Laerm;71083;51.796;10.952;2024-01-30T12:50:18;68.50;57.37;74.61;;
81666;Laerm;71083;51.796;10.952;2024-01-30T12:52:44;69.89;51.98;80.43;;
81666;Laerm;71083;51.796;10.952;2024-01-30T12:55:10;65.58;45.31;75.24;;
81666;Laerm;71083;51.796;10.952;2024-01-30T12:57:35;69.77;49.32;80.77;;
81666;Laerm;71083;51.796;10.952;2024-01-30T13:00:00;67.34;50.43;74.59;;
81666;Laerm;71083;51.796;10.952;2024-01-30T13:02:25;66.86;48.84;73.12;;
81666;Laerm;71083;51.796;10.952;2024-01-30T13:04:55;67.70;46.50;75.44;;
81666;Laerm;71083;51.796;10.952;2024-01-30T13:07:20;65.98;45.53;74.84;;
81666;Laerm;71083;51.796;10.952;2024-01-30T13:09:45;67.21;50.18;77.04;;
81666;Laerm;71083;51.796;10.952;2024-01-30T13:12:11;75.89;55.61;96.13;;
81666;Laerm;71083;51.796;10.952;2024-01-30T13:14:36;66.26;52.95;74.28;;
81666;Laerm;71083;51.796;10.952;2024-01-30T13:17:01;66.92;47.48;76.45;;
81666;Laerm;71083;51.796;10.952;2024-01-30T13:19:27;68.40;52.27;78.98;;
81666;Laerm;71083;51.796;10.952;2024-01-30T13:21:52;67.13;49.95;73.36;;
81666;Laerm;71083;51.796;10.952;2024-01-30T13:24:17;67.70;46.15;74.80;;
81666;Laerm;71083;51.796;10.952;2024-01-30T13:26:46;66.59;46.96;75.92;;
81666;Laerm;71083;51.796;10.952;2024-01-30T13:29:11;68.83;44.43;77.52;;
81666;Laerm;71083;51.796;10.952;2024-01-30T13:31:36;67.93;51.42;84.18;;